Time;durP1;ratioP1;P1;durP2;ratioP2;P2;SDS_P1;SDS_P2;PMS_P1;PMS_P2;Temp;Humidity;BMP_temperature;BMP_pressure;BME280_temperature;BME280_humidity;BME280_pressure;Samples;Min_cycle;Max_cycle;Signal;HPM_P1;HPM_P2
2023/04/30 00:01:55;;;;;;;5.68;2.63;;;11.10;99.90;;;;;;5013277;28;20447;-75
2023/04/30 00:04:22;;;;;;;2.03;1.80;;;11.10;99.90;;;;;;5011471;28;20771;-75
2023/04/30 00:06:51;;;;;;;2.00;1.90;;;11.10;99.90;;;;;;5013818;28;20968;-75
2023/04/30 00:09:18;;;;;;;1.45;1.23;;;11.00;99.90;;;;;;5012287;28;20796;-75
2023/04/30 00:11:49;;;;;;;3.10;2.17;;;11.00;99.90;;;;;;5014099;28;20433;-75
2023/04/30 00:14:16;;;;;;;2.25;2.08;;;11.00;99.90;;;;;;5013271;28;20431;-75
2023/04/30 00:17:07;;;;;;;2.00;1.90;;;11.10;99.90;;;;;;5012008;28;20653;-75
2023/04/30 00:20:01;;;;;;;1.63;1.52;;;11.00;99.90;;;;;;5014247;28;20415;-75
2023/04/30 00:22:52;;;;;;;1.52;1.42;;;11.00;99.90;;;;;;5015474;28;20420;-75
2023/04/30 00:25:23;;;;;;;2.10;2.00;;;11.00;99.90;;;;;;5011385;28;20435;-75
2023/04/30 00:28:14;;;;;;;2.35;1.67;;;11.00;99.90;;;;;;5013563;28;20464;-75
2023/04/30 00:30:44;;;;;;;2.40;1.52;;;11.00;99.90;;;;;;5013395;28;20454;-75
2023/04/30 00:33:15;;;;;;;1.93;1.83;;;11.00;99.90;;;;;;5012697;28;20434;-75
2023/04/30 00:35:42;;;;;;;1.45;1.45;;;11.00;99.90;;;;;;5012801;28;20435;-75
2023/04/30 00:38:09;;;;;;;2.55;1.75;;;11.00;99.90;;;;;;5015210;28;20441;-75
2023/04/30 00:40:37;;;;;;;2.45;2.25;;;11.00;99.90;;;;;;5012389;28;21177;-75
2023/04/30 00:43:08;;;;;;;1.98;1.88;;;11.00;99.90;;;;;;5013163;28;20442;-75
2023/04/30 00:45:35;;;;;;;2.92;1.98;;;11.00;99.90;;;;;;5010979;28;20724;-75
2023/04/30 00:48:01;;;;;;;2.15;2.05;;;11.00;99.90;;;;;;5000291;28;20482;-75
2023/04/30 00:50:28;;;;;;;3.70;1.58;;;10.90;99.90;;;;;;5011020;28;21171;-75
2023/04/30 00:52:56;;;;;;;2.83;2.33;;;10.90;99.90;;;;;;5012206;28;20450;-75
2023/04/30 00:55:23;;;;;;;2.38;2.17;;;10.90;99.90;;;;;;5028805;28;20435;-75
2023/04/30 00:57:50;;;;;;;4.00;1.87;;;10.90;99.90;;;;;;5013484;28;20454;-75
2023/04/30 01:00:18;;;;;;;2.65;1.92;;;10.90;99.90;;;;;;5012497;28;20446;-75
2023/04/30 01:02:45;;;;;;;3.17;2.20;;;10.90;99.90;;;;;;5011265;28;20450;-74
2023/04/30 01:05:12;;;;;;;2.33;2.13;;;10.90;99.90;;;;;;5012709;28;20442;-75
2023/04/30 01:07:43;;;;;;;2.83;2.15;;;10.90;99.90;;;;;;5009616;28;20445;-74
2023/04/30 01:10:14;;;;;;;2.35;2.25;;;10.90;99.90;;;;;;5008619;28;20955;-75
2023/04/30 01:13:06;;;;;;;2.28;1.85;;;10.90;99.90;;;;;;5010364;28;20446;-75
2023/04/30 01:15:46;;;;;;;3.92;2.83;;;10.80;99.90;;;;;;5012424;28;20443;-75
2023/04/30 01:18:22;;;;;;;2.38;2.03;;;10.80;99.90;;;;;;5011092;28;20476;-75
2023/04/30 01:20:58;;;;;;;1.92;1.63;;;10.70;99.90;;;;;;5012323;28;20470;-75
2023/04/30 01:23:55;;;;;;;1.95;1.85;;;10.70;99.90;;;;;;5012001;28;20438;-75
2023/04/30 01:26:36;;;;;;;2.47;2.28;;;10.70;99.90;;;;;;5004990;28;20446;-75
2023/04/30 01:29:04;;;;;;;4.93;2.78;;;10.70;99.90;;;;;;5015399;28;20442;-74
2023/04/30 01:31:30;;;;;;;1.95;1.85;;;10.60;99.90;;;;;;5015117;28;20443;-75
2023/04/30 01:33:57;;;;;;;2.55;2.30;;;10.60;99.90;;;;;;5018204;28;20449;-75
2023/04/30 01:36:39;;;;;;;2.60;2.40;;;10.60;99.90;;;;;;5017641;28;20449;-75
2023/04/30 01:39:26;;;;;;;3.97;2.80;;;10.60;99.90;;;;;;5016906;28;20505;-75
2023/04/30 01:42:09;;;;;;;3.35;2.50;;;10.60;99.90;;;;;;5014943;28;20432;-75
2023/04/30 01:44:50;;;;;;;3.75;2.22;;;10.60;99.90;;;;;;5017728;28;20433;-74
2023/04/30 01:47:35;;;;;;;2.57;2.40;;;10.50;99.90;;;;;;5014296;28;20422;-75
2023/04/30 01:50:21;;;;;;;3.30;2.28;;;10.50;99.90;;;;;;5012136;28;20794;-75
2023/04/30 01:52:52;;;;;;;2.72;2.53;;;10.50;99.90;;;;;;5010486;28;20445;-75
2023/04/30 01:55:36;;;;;;;4.70;2.47;;;10.50;99.90;;;;;;5012353;28;20480;-75
2023/04/30 01:58:05;;;;;;;3.65;3.22;;;10.40;99.90;;;;;;5011677;28;20545;-74
2023/04/30 02:00:32;;;;;;;5.53;3.38;;;10.40;99.90;;;;;;5011534;28;20442;-74
2023/04/30 02:02:59;;;;;;;3.38;3.03;;;10.40;99.90;;;;;;5012058;28;20442;-75
2023/04/30 02:05:28;;;;;;;3.72;2.67;;;10.30;99.90;;;;;;5011547;28;20436;-75
2023/04/30 02:07:55;;;;;;;2.92;2.72;;;10.40;99.90;;;;;;5013430;28;20495;-75
2023/04/30 02:10:26;;;;;;;2.90;2.70;;;10.40;99.90;;;;;;5027283;28;20434;-75
2023/04/30 02:12:52;;;;;;;3.72;2.60;;;10.40;99.90;;;;;;5011985;28;20447;-75
2023/04/30 02:15:19;;;;;;;3.30;2.15;;;10.40;99.90;;;;;;5011329;28;20457;-75
2023/04/30 02:17:46;;;;;;;4.53;2.65;;;10.40;99.90;;;;;;5011140;28;20545;-75
2023/04/30 02:20:13;;;;;;;3.45;2.58;;;10.40;99.90;;;;;;5014802;28;20944;-75
2023/04/30 02:22:40;;;;;;;3.45;2.50;;;10.40;99.90;;;;;;5007103;28;20431;-75
2023/04/30 02:25:07;;;;;;;3.17;2.60;;;10.40;99.90;;;;;;5008323;28;20435;-74
2023/04/30 02:27:34;;;;;;;2.90;2.70;;;10.40;99.90;;;;;;5011662;28;20992;-75
2023/04/30 02:30:01;;;;;;;3.50;2.78;;;10.30;99.90;;;;;;5011694;28;20426;-74
2023/04/30 02:32:28;;;;;;;2.58;2.47;;;10.30;99.90;;;;;;5010658;28;20469;-74
2023/04/30 02:34:56;;;;;;;3.08;2.80;;;10.30;99.90;;;;;;5009702;28;20435;-75
2023/04/30 02:37:23;;;;;;;2.35;2.20;;;10.20;99.90;;;;;;5011898;28;20441;-75
2023/04/30 02:39:50;;;;;;;2.20;2.10;;;10.20;99.90;;;;;;5012204;28;20437;-75
2023/04/30 02:42:17;;;;;;;2.17;2.03;;;10.20;99.90;;;;;;5009356;28;20441;-75
2023/04/30 02:44:44;;;;;;;4.27;2.67;;;10.20;99.90;;;;;;5009322;28;21031;-75
2023/04/30 02:47:10;;;;;;;7.28;3.30;;;10.20;99.90;;;;;;5009625;28;20426;-75
2023/04/30 02:49:38;;;;;;;3.50;2.80;;;10.10;99.90;;;;;;5009502;28;20433;-75
2023/04/30 02:52:06;;;;;;;4.18;3.65;;;10.10;99.90;;;;;;5011045;28;20484;-74
2023/04/30 02:54:32;;;;;;;3.53;2.70;;;10.10;99.90;;;;;;5010202;28;20453;-75
2023/04/30 02:56:59;;;;;;;3.47;3.17;;;10.10;99.90;;;;;;5011354;28;20951;-75
2023/04/30 02:59:26;;;;;;;4.10;3.30;;;10.10;99.90;;;;;;5010926;28;20446;-76
2023/04/30 03:01:52;;;;;;;3.07;2.87;;;10.10;99.90;;;;;;5010334;28;20482;-74
2023/04/30 03:04:19;;;;;;;2.88;2.47;;;10.10;99.90;;;;;;5014436;28;20430;-74
2023/04/30 03:06:46;;;;;;;4.13;3.22;;;10.00;99.90;;;;;;5012665;28;20443;-75
2023/04/30 03:09:14;;;;;;;2.92;2.60;;;10.00;99.90;;;;;;5013372;28;20438;-75
2023/04/30 03:11:40;;;;;;;4.50;3.60;;;10.00;99.90;;;;;;5015310;28;20439;-74
2023/04/30 03:14:07;;;;;;;3.20;2.88;;;10.00;99.90;;;;;;5012824;28;20493;-74
2023/04/30 03:16:34;;;;;;;3.10;2.90;;;10.00;99.90;;;;;;5011674;28;20498;-74
2023/04/30 03:19:01;;;;;;;4.70;3.67;;;10.00;99.90;;;;;;5015084;28;20445;-74
2023/04/30 03:21:28;;;;;;;2.17;1.83;;;10.00;99.90;;;;;;5015822;28;20443;-74
2023/04/30 03:23:54;;;;;;;2.92;2.53;;;10.00;99.90;;;;;;5013558;28;20443;-75
2023/04/30 03:26:21;;;;;;;5.07;3.72;;;10.10;99.90;;;;;;5012015;28;20438;-75
2023/04/30 03:28:48;;;;;;;3.42;3.03;;;10.00;99.90;;;;;;5012563;28;20423;-75
2023/04/30 03:31:15;;;;;;;7.53;3.67;;;10.00;99.90;;;;;;5014916;28;20443;-74
2023/04/30 03:33:41;;;;;;;3.50;3.17;;;10.00;99.90;;;;;;5014423;28;20524;-74
2023/04/30 03:36:08;;;;;;;3.35;2.85;;;10.00;99.90;;;;;;5011936;28;20438;-74
2023/04/30 03:38:41;;;;;;;4.85;3.67;;;10.00;99.90;;;;;;5013065;28;20445;-74
2023/04/30 03:41:08;;;;;;;4.53;2.70;;;10.00;99.90;;;;;;5014373;28;20449;-74
2023/04/30 03:43:36;;;;;;;4.13;3.75;;;10.00;99.90;;;;;;5012972;28;21554;-75
2023/04/30 03:46:03;;;;;;;4.00;3.08;;;10.00;99.90;;;;;;5013731;28;20446;-74
2023/04/30 03:48:30;;;;;;;7.73;4.20;;;9.90;99.90;;;;;;5013238;28;20806;-75
2023/04/30 03:50:57;;;;;;;5.78;3.85;;;10.00;99.90;;;;;;5013876;28;20430;-74
2023/04/30 03:53:25;;;;;;;3.90;3.50;;;9.90;99.90;;;;;;5016224;28;20905;-74
2023/04/30 03:55:53;;;;;;;3.88;2.97;;;9.90;99.90;;;;;;5018144;28;20940;-74
2023/04/30 03:58:21;;;;;;;3.92;3.05;;;9.80;99.90;;;;;;5026014;28;20432;-75
2023/04/30 04:00:48;;;;;;;3.33;3.03;;;9.80;99.90;;;;;;5013073;28;20465;-76
2023/04/30 04:03:15;;;;;;;4.03;3.17;;;9.80;99.90;;;;;;5012632;28;20941;-74
2023/04/30 04:05:42;;;;;;;4.38;3.05;;;9.80;99.90;;;;;;5013300;28;20433;-75
2023/04/30 04:08:12;;;;;;;5.45;3.72;;;9.70;99.90;;;;;;5013054;28;20467;-75
2023/04/30 04:10:39;;;;;;;3.55;2.95;;;9.70;99.90;;;;;;5011665;28;20440;-75
2023/04/30 04:13:06;;;;;;;4.82;3.25;;;9.70;99.90;;;;;;5013076;28;20435;-74
2023/04/30 04:15:33;;;;;;;4.38;3.28;;;9.70;99.90;;;;;;5013937;28;20453;-75
2023/04/30 04:18:00;;;;;;;3.63;3.33;;;9.70;99.90;;;;;;5011974;28;20786;-75
2023/04/30 04:20:28;;;;;;;4.27;2.87;;;9.70;99.90;;;;;;5013208;28;20789;-75
2023/04/30 04:22:55;;;;;;;3.88;3.58;;;9.80;99.90;;;;;;5010767;28;20764;-75
2023/04/30 04:25:24;;;;;;;4.65;3.88;;;9.80;99.90;;;;;;5004678;28;20456;-75
2023/04/30 04:27:51;;;;;;;3.88;3.53;;;9.80;99.90;;;;;;5014402;28;20536;-75
2023/04/30 04:30:18;;;;;;;6.97;3.30;;;9.80;99.90;;;;;;5012134;28;20439;-75
2023/04/30 04:32:50;;;;;;;3.67;3.38;;;9.80;99.90;;;;;;5010260;28;20437;-75
2023/04/30 04:35:18;;;;;;;3.83;3.42;;;9.80;99.90;;;;;;5011250;28;20886;-75
2023/04/30 04:37:44;;;;;;;3.35;3.05;;;9.80;99.90;;;;;;5013209;28;20443;-75
2023/04/30 04:40:12;;;;;;;3.43;2.67;;;9.80;99.90;;;;;;5013952;28;20435;-74
2023/04/30 04:42:39;;;;;;;3.78;3.05;;;9.80;99.90;;;;;;5009918;28;20782;-75
2023/04/30 04:45:07;;;;;;;2.93;2.73;;;9.80;99.90;;;;;;5011172;28;20434;-74
2023/04/30 04:47:34;;;;;;;3.63;3.10;;;9.90;99.90;;;;;;5013754;28;20779;-75
2023/04/30 04:50:01;;;;;;;4.20;2.50;;;9.90;99.90;;;;;;5010626;28;20925;-75
2023/04/30 04:52:28;;;;;;;3.70;3.13;;;10.00;99.90;;;;;;5010904;28;20515;-75
2023/04/30 04:54:55;;;;;;;2.85;2.65;;;10.00;99.90;;;;;;5010336;28;20802;-75
2023/04/30 04:57:21;;;;;;;4.82;3.88;;;10.00;99.90;;;;;;5013557;28;20445;-74
2023/04/30 04:59:48;;;;;;;5.07;2.75;;;10.10;99.90;;;;;;5010824;28;20450;-74
2023/04/30 05:02:15;;;;;;;6.20;3.37;;;10.10;99.90;;;;;;5012019;28;20430;-74
2023/04/30 05:04:41;;;;;;;4.55;3.25;;;10.20;99.90;;;;;;5006258;28;20600;-74
2023/04/30 05:07:10;;;;;;;3.53;3.22;;;10.20;99.90;;;;;;5010187;28;20427;-74
2023/04/30 05:09:36;;;;;;;3.22;2.90;;;10.30;99.90;;;;;;5010782;28;20437;-74
2023/04/30 05:12:04;;;;;;;2.70;2.50;;;10.30;99.90;;;;;;5012038;28;20445;-75
2023/04/30 05:14:31;;;;;;;2.95;2.70;;;10.40;99.90;;;;;;5004564;28;20440;-74
2023/04/30 05:16:58;;;;;;;5.10;3.75;;;10.40;99.90;;;;;;5009538;28;20446;-74
2023/04/30 05:19:24;;;;;;;3.63;2.87;;;10.50;99.90;;;;;;5010385;28;20961;-74
2023/04/30 05:21:53;;;;;;;3.50;2.97;;;10.50;99.90;;;;;;5010644;28;20879;-74
2023/04/30 05:24:20;;;;;;;2.60;2.40;;;10.60;99.90;;;;;;5010295;28;20951;-74
2023/04/30 05:26:47;;;;;;;2.88;2.63;;;10.60;99.90;;;;;;5008495;28;20812;-74
2023/04/30 05:29:14;;;;;;;14.18;3.00;;;10.80;99.90;;;;;;5011145;28;20422;-74
2023/04/30 05:31:40;;;;;;;3.90;3.22;;;10.90;99.90;;;;;;5010776;28;20461;-74
2023/04/30 05:34:07;;;;;;;3.95;2.85;;;11.00;99.90;;;;;;5010235;28;20795;-74
2023/04/30 05:36:34;;;;;;;3.07;2.77;;;11.20;99.90;;;;;;5007410;28;20493;-74
2023/04/30 05:39:02;;;;;;;3.65;2.65;;;11.20;99.90;;;;;;5012597;28;20445;-75
2023/04/30 05:41:28;;;;;;;3.63;2.95;;;11.30;99.90;;;;;;5010702;28;20443;-75
2023/04/30 05:43:55;;;;;;;2.70;2.47;;;11.40;99.90;;;;;;5011441;28;20797;-75
2023/04/30 05:46:21;;;;;;;4.07;3.22;;;11.40;99.90;;;;;;5007227;28;20442;-75
2023/04/30 05:48:48;;;;;;;2.97;2.67;;;11.30;99.90;;;;;;5008924;28;20430;-74
2023/04/30 05:51:15;;;;;;;4.30;3.10;;;11.30;99.90;;;;;;5009986;28;20921;-75
2023/04/30 05:53:42;;;;;;;3.70;3.30;;;11.40;99.90;;;;;;5008047;28;20439;-75
2023/04/30 05:56:09;;;;;;;2.88;2.58;;;11.50;99.90;;;;;;5007850;28;20505;-75
2023/04/30 05:58:36;;;;;;;4.67;4.23;;;11.60;99.90;;;;;;5008729;28;20439;-75
2023/04/30 06:01:03;;;;;;;2.80;2.60;;;11.80;99.90;;;;;;5009700;28;20439;-74
2023/04/30 06:03:30;;;;;;;4.88;2.90;;;12.20;99.90;;;;;;5009324;28;20439;-75
2023/04/30 06:05:57;;;;;;;3.88;2.88;;;12.20;99.90;;;;;;5008172;28;20978;-75
2023/04/30 06:08:24;;;;;;;3.75;2.42;;;12.30;99.90;;;;;;5007308;28;20815;-74
2023/04/30 06:10:50;;;;;;;3.03;2.72;;;12.90;99.90;;;;;;5007087;28;20795;-75
2023/04/30 06:13:18;;;;;;;2.75;2.55;;;13.60;99.90;;;;;;5006981;28;21255;-75
2023/04/30 06:15:44;;;;;;;3.72;2.65;;;13.90;99.90;;;;;;5008125;28;20443;-75
2023/04/30 06:18:13;;;;;;;2.60;2.40;;;14.30;99.90;;;;;;5008089;28;20431;-75
2023/04/30 06:20:40;;;;;;;4.15;2.80;;;14.80;99.90;;;;;;5008492;28;21163;-74
2023/04/30 06:23:10;;;;;;;2.95;2.30;;;14.80;99.90;;;;;;5003195;28;20435;-74
2023/04/30 06:25:36;;;;;;;2.78;2.55;;;15.00;99.90;;;;;;5001847;28;20443;-74
2023/04/30 06:28:07;;;;;;;2.55;2.35;;;15.50;99.90;;;;;;5007338;28;20446;-75
2023/04/30 06:30:34;;;;;;;3.57;2.43;;;15.50;99.90;;;;;;5011281;28;20431;-74
2023/04/30 06:33:00;;;;;;;2.38;2.17;;;15.40;99.90;;;;;;5009541;28;20434;-74
2023/04/30 06:35:31;;;;;;;2.65;2.38;;;15.50;99.90;;;;;;5010121;28;21222;-74
2023/04/30 06:37:58;;;;;;;2.40;2.22;;;15.90;99.90;;;;;;5007918;28;20485;-74
2023/04/30 06:40:24;;;;;;;2.08;1.98;;;15.70;99.90;;;;;;5009288;28;20597;-75
2023/04/30 06:42:53;;;;;;;2.88;2.00;;;16.20;99.90;;;;;;5011474;28;20458;-74
2023/04/30 06:45:20;;;;;;;2.88;2.13;;;16.70;99.90;;;;;;5008854;28;20459;-75
2023/04/30 06:47:46;;;;;;;2.28;2.08;;;16.20;99.90;;;;;;5006185;28;20787;-74
2023/04/30 06:50:14;;;;;;;1.65;1.55;;;16.40;99.90;;;;;;5011474;28;20997;-74
2023/04/30 06:52:41;;;;;;;2.47;1.83;;;17.00;99.90;;;;;;5010194;28;20518;-75
2023/04/30 06:55:08;;;;;;;1.83;1.73;;;17.30;99.90;;;;;;5009995;28;20434;-75
2023/04/30 06:57:36;;;;;;;2.65;2.17;;;16.80;99.90;;;;;;5009304;28;20438;-74
2023/04/30 07:00:05;;;;;;;1.90;1.70;;;16.70;99.90;;;;;;5007486;28;20955;-74
2023/04/30 07:02:34;;;;;;;1.95;1.85;;;16.60;99.90;;;;;;5003011;28;21047;-74
2023/04/30 07:05:01;;;;;;;1.80;1.70;;;16.80;99.90;;;;;;5009593;28;20445;-74
2023/04/30 07:07:27;;;;;;;9.40;1.70;;;16.80;99.90;;;;;;5023121;28;20430;-74
2023/04/30 07:09:54;;;;;;;2.00;1.40;;;17.20;99.90;;;;;;5009089;28;21409;-74
2023/04/30 07:12:21;;;;;;;1.80;1.63;;;17.30;99.90;;;;;;5010319;28;20465;-75
2023/04/30 07:14:48;;;;;;;2.50;2.17;;;17.90;99.90;;;;;;5008832;28;20438;-74
2023/04/30 07:17:15;;;;;;;1.80;1.65;;;18.10;99.90;;;;;;5006857;28;20628;-75
2023/04/30 07:19:42;;;;;;;2.03;1.93;;;17.90;99.90;;;;;;5011019;28;20441;-74
2023/04/30 07:22:09;;;;;;;2.28;2.08;;;18.10;99.90;;;;;;5007712;28;20443;-75
2023/04/30 07:24:35;;;;;;;2.10;1.90;;;18.10;99.90;;;;;;5007326;28;20960;-74
2023/04/30 07:27:03;;;;;;;1.33;1.33;;;17.90;99.90;;;;;;5009143;28;20446;-75
2023/04/30 07:29:30;;;;;;;1.58;1.48;;;18.30;99.90;;;;;;5011527;28;20439;-74
2023/04/30 07:31:58;;;;;;;2.00;1.90;;;18.60;99.90;;;;;;5010080;28;20442;-74
2023/04/30 07:34:25;;;;;;;1.25;1.17;;;18.80;99.70;;;;;;5011385;28;20522;-75
2023/04/30 07:36:51;;;;;;;1.55;1.45;;;19.20;99.40;;;;;;5014681;28;20918;-74
2023/04/30 07:39:18;;;;;;;1.35;1.30;;;19.40;98.40;;;;;;5010196;28;20975;-74
2023/04/30 07:41:46;;;;;;;1.63;1.52;;;19.20;98.10;;;;;;5008371;28;20449;-75
2023/04/30 07:44:13;;;;;;;3.65;1.30;;;19.00;97.80;;;;;;5009877;28;20961;-73
2023/04/30 07:46:39;;;;;;;3.00;1.20;;;18.50;97.20;;;;;;5011096;28;21168;-74
2023/04/30 07:49:06;;;;;;;1.40;1.30;;;18.40;97.30;;;;;;5010740;28;20465;-74
2023/04/30 07:51:34;;;;;;;3.07;1.33;;;18.80;97.40;;;;;;5011934;28;20928;-74
2023/04/30 07:54:01;;;;;;;1.25;1.15;;;19.20;97.20;;;;;;5013529;28;21256;-74
2023/04/30 07:56:27;;;;;;;1.40;1.10;;;19.20;96.60;;;;;;5012258;28;20551;-75
2023/04/30 07:58:57;;;;;;;1.20;1.20;;;19.30;96.30;;;;;;5012832;28;20514;-74
2023/04/30 08:01:26;;;;;;;0.90;0.90;;;19.60;96.20;;;;;;5012848;28;20438;-74
2023/04/30 08:03:52;;;;;;;1.00;0.90;;;19.50;95.50;;;;;;5005917;28;20442;-73
2023/04/30 08:06:23;;;;;;;1.40;1.00;;;18.90;94.90;;;;;;5014536;28;20435;-74
2023/04/30 08:08:49;;;;;;;0.73;0.73;;;18.80;95.00;;;;;;5011878;28;20427;-74
2023/04/30 08:11:16;;;;;;;1.45;1.35;;;18.80;94.90;;;;;;5010222;28;20491;-76
2023/04/30 08:13:43;;;;;;;1.40;1.30;;;18.80;95.10;;;;;;5012812;28;20444;-75
2023/04/30 08:16:11;;;;;;;2.22;1.23;;;18.50;94.60;;;;;;5011770;28;20945;-74
2023/04/30 08:18:42;;;;;;;1.05;1.02;;;18.80;94.80;;;;;;5011230;28;20439;-75
2023/04/30 08:21:11;;;;;;;2.08;1.10;;;19.10;94.50;;;;;;5012097;28;20638;-74
2023/04/30 08:23:38;;;;;;;0.77;0.77;;;19.10;94.40;;;;;;5012563;28;20430;-74
2023/04/30 08:26:05;;;;;;;0.70;0.70;;;19.00;94.30;;;;;;5012012;28;20427;-75
2023/04/30 08:28:35;;;;;;;0.75;0.75;;;18.80;93.80;;;;;;5011223;28;20459;-76
2023/04/30 08:31:02;;;;;;;0.70;0.70;;;18.90;94.30;;;;;;5010645;28;20431;-73
2023/04/30 08:33:28;;;;;;;1.00;1.00;;;19.10;94.80;;;;;;5012028;28;20434;-74
2023/04/30 08:36:02;;;;;;;0.60;0.60;;;19.20;93.90;;;;;;5011603;28;20473;-74
2023/04/30 08:38:29;;;;;;;0.82;0.75;;;19.40;93.60;;;;;;5011526;28;20524;-74
2023/04/30 08:41:09;;;;;;;1.17;0.90;;;19.60;93.30;;;;;;5010188;28;20517;-76
2023/04/30 08:43:36;;;;;;;1.00;0.75;;;19.40;93.20;;;;;;5012683;28;20501;-75
2023/04/30 08:46:06;;;;;;;0.52;0.52;;;19.90;93.90;;;;;;5011070;28;20435;-76
2023/04/30 08:48:35;;;;;;;0.73;0.73;;;19.70;92.80;;;;;;5012610;28;20435;-77
2023/04/30 08:51:03;;;;;;;1.20;0.90;;;18.30;93.00;;;;;;5010461;28;20860;-75
2023/04/30 08:53:33;;;;;;;1.30;0.65;;;18.00;93.10;;;;;;5010398;28;20921;-75
2023/04/30 08:56:04;;;;;;;0.50;0.50;;;18.70;93.40;;;;;;5007068;28;20513;-75
2023/04/30 08:58:33;;;;;;;0.52;0.52;;;19.10;93.00;;;;;;5010386;28;20469;-76
2023/04/30 09:01:01;;;;;;;0.70;0.50;;;18.40;92.20;;;;;;5018629;28;21028;-76
2023/04/30 09:03:30;;;;;;;0.70;0.70;;;17.50;92.30;;;;;;5011472;28;20446;-75
2023/04/30 09:06:00;;;;;;;1.40;0.88;;;17.30;92.60;;;;;;5030136;28;20514;-76
2023/04/30 09:08:47;;;;;;;0.70;0.60;;;17.80;92.90;;;;;;5016032;28;20593;-74
2023/04/30 09:11:25;;;;;;;0.90;0.52;;;18.40;92.60;;;;;;5029019;28;20432;-76
2023/04/30 09:13:56;;;;;;;0.90;0.60;;;18.90;92.20;;;;;;5009969;28;20464;-74
2023/04/30 09:16:24;;;;;;;0.50;0.50;;;19.30;92.30;;;;;;5012536;28;21137;-76
2023/04/30 09:18:58;;;;;;;0.80;0.60;;;19.80;92.00;;;;;;5014390;28;20434;-76
2023/04/30 09:21:32;;;;;;;0.43;0.43;;;20.40;91.50;;;;;;5014332;28;20431;-74
2023/04/30 09:24:01;;;;;;;0.40;0.40;;;20.20;90.70;;;;;;5011258;28;20439;-74
2023/04/30 09:26:36;;;;;;;0.40;0.40;;;19.80;90.40;;;;;;5009905;28;20431;-74
2023/04/30 09:29:09;;;;;;;0.50;0.50;;;18.90;90.00;;;;;;5011414;28;20521;-74
2023/04/30 09:31:37;;;;;;;0.50;0.50;;;18.60;90.70;;;;;;5009167;28;20553;-74
2023/04/30 09:34:05;;;;;;;2.00;0.40;;;19.00;90.90;;;;;;5006748;28;20442;-75
2023/04/30 09:36:32;;;;;;;0.40;0.40;;;18.50;88.90;;;;;;5010243;28;20427;-75
2023/04/30 09:39:10;;;;;;;0.50;0.50;;;18.40;90.00;;;;;;5010394;28;20435;-75
2023/04/30 09:41:41;;;;;;;0.30;0.30;;;18.60;90.10;;;;;;5009450;28;21011;-74
2023/04/30 09:44:31;;;;;;;0.47;0.47;;;18.70;90.00;;;;;;5009312;28;20527;-74
2023/04/30 09:47:00;;;;;;;0.60;0.35;;;19.40;90.00;;;;;;5011058;28;20434;-74
2023/04/30 09:49:27;;;;;;;1.35;0.55;;;19.90;89.80;;;;;;5009424;28;20497;-75
2023/04/30 09:52:13;;;;;;;0.40;0.40;;;19.80;89.50;;;;;;5009177;28;20580;-74
2023/04/30 09:54:43;;;;;;;0.40;0.40;;;19.90;89.80;;;;;;5007136;28;20437;-75
2023/04/30 09:57:12;;;;;;;0.50;0.50;;;20.40;89.20;;;;;;5008606;28;20895;-75
2023/04/30 09:59:47;;;;;;;0.50;0.50;;;21.00;89.30;;;;;;5011941;28;20434;-75
2023/04/30 10:02:22;;;;;;;0.43;0.43;;;21.20;87.20;;;;;;5009984;28;20438;-75
2023/04/30 10:04:55;;;;;;;0.55;0.55;;;21.40;87.90;;;;;;5006366;28;20497;-76
2023/04/30 10:07:24;;;;;;;0.50;0.50;;;21.30;86.80;;;;;;5011440;28;20441;-75
2023/04/30 10:10:07;;;;;;;0.98;0.50;;;20.60;85.90;;;;;;5007029;28;20469;-76
2023/04/30 10:12:47;;;;;;;2.40;0.50;;;20.30;87.00;;;;;;5008227;28;20438;-76
2023/04/30 10:15:19;;;;;;;0.57;0.45;;;19.90;86.90;;;;;;5008549;28;20590;-75
2023/04/30 10:17:51;;;;;;;0.50;0.35;;;20.50;87.90;;;;;;5007344;28;20779;-74
2023/04/30 10:20:20;;;;;;;0.50;0.50;;;21.00;87.60;;;;;;5009310;28;20992;-75
2023/04/30 10:22:53;;;;;;;0.40;0.40;;;21.30;86.40;;;;;;5010131;28;22127;-75
2023/04/30 10:25:21;;;;;;;0.40;0.40;;;21.20;85.80;;;;;;5009781;28;20441;-73
2023/04/30 10:27:49;;;;;;;0.50;0.50;;;21.30;86.20;;;;;;5025805;28;20435;-73
2023/04/30 10:30:20;;;;;;;0.43;0.43;;;20.40;86.50;;;;;;5009501;28;20439;-75
2023/04/30 10:33:00;;;;;;;0.40;0.40;;;19.50;86.60;;;;;;5010489;28;20529;-73
2023/04/30 10:35:50;;;;;;;0.77;0.57;;;19.60;88.00;;;;;;5000926;28;20435;-73
2023/04/30 10:38:22;;;;;;;0.57;0.57;;;19.40;87.00;;;;;;5009208;28;20454;-73
2023/04/30 10:40:48;;;;;;;0.45;0.45;;;19.10;87.50;;;;;;5008862;28;20940;-74
2023/04/30 10:43:23;;;;;;;0.60;0.35;;;19.60;89.20;;;;;;5008830;28;20959;-74
2023/04/30 10:45:50;;;;;;;0.50;0.50;;;19.80;88.60;;;;;;5008955;28;20825;-75
2023/04/30 10:48:23;;;;;;;0.38;0.38;;;20.50;88.10;;;;;;5008604;28;20426;-73
2023/04/30 10:50:58;;;;;;;0.40;0.40;;;21.00;87.20;;;;;;5008254;28;20780;-74
2023/04/30 10:53:28;;;;;;;0.35;0.35;;;21.60;86.60;;;;;;5008924;28;20427;-75
2023/04/30 10:56:06;;;;;;;0.80;0.50;;;20.40;85.60;;;;;;5009265;28;20453;-73
2023/04/30 10:58:34;;;;;;;0.43;0.43;;;20.60;87.00;;;;;;5005141;28;20450;-75
2023/04/30 11:01:11;;;;;;;0.40;0.40;;;20.40;86.10;;;;;;5008974;28;20434;-74
2023/04/30 11:03:41;;;;;;;0.30;0.30;;;21.10;86.30;;;;;;5012504;28;20445;-74
2023/04/30 11:06:18;;;;;;;0.40;0.40;;;22.50;86.90;;;;;;5009635;28;20434;-75
2023/04/30 11:08:47;;;;;;;0.20;0.20;;;22.70;84.20;;;;;;5011357;28;20465;-74
2023/04/30 11:11:19;;;;;;;0.50;0.50;;;22.60;84.10;;;;;;5013464;28;20432;-74
2023/04/30 11:14:00;;;;;;;0.50;0.50;;;21.80;83.90;;;;;;5013488;28;20509;-73
2023/04/30 11:16:30;;;;;;;0.53;0.53;;;21.40;84.10;;;;;;5010420;28;20440;-74
2023/04/30 11:19:12;;;;;;;0.85;0.40;;;21.60;85.00;;;;;;5028393;28;20912;-74
2023/04/30 11:21:40;;;;;;;1.53;0.67;;;21.90;83.30;;;;;;5012483;28;20443;-73
2023/04/30 11:24:07;;;;;;;0.50;0.50;;;21.90;83.50;;;;;;5013291;28;20786;-74
2023/04/30 11:27:02;;;;;;;0.60;0.60;;;21.70;83.30;;;;;;5012766;28;20527;-74
2023/04/30 11:29:30;;;;;;;0.70;0.50;;;21.80;84.60;;;;;;5012252;28;20459;-74
2023/04/30 11:32:00;;;;;;;0.40;0.40;;;21.60;85.40;;;;;;5013625;28;20429;-73
2023/04/30 11:34:27;;;;;;;0.30;0.30;;;21.60;85.00;;;;;;5014357;28;21068;-73
2023/04/30 11:36:58;;;;;;;0.32;0.32;;;21.60;84.80;;;;;;5009579;28;20440;-73
2023/04/30 11:39:30;;;;;;;0.40;0.40;;;21.80;85.20;;;;;;5013386;28;20439;-74
2023/04/30 11:42:06;;;;;;;0.30;0.30;;;22.10;87.30;;;;;;5009172;28;20451;-74
2023/04/30 11:44:33;;;;;;;0.30;0.30;;;22.90;83.80;;;;;;5011305;28;20439;-74
2023/04/30 11:47:01;;;;;;;0.20;0.20;;;22.60;82.90;;;;;;5007825;28;20498;-73
2023/04/30 11:49:32;;;;;;;0.30;0.30;;;22.50;82.90;;;;;;5013877;28;20442;-74
2023/04/30 11:51:59;;;;;;;1.40;0.52;;;22.30;82.20;;;;;;5011490;28;21361;-75
2023/04/30 11:54:26;;;;;;;0.38;0.30;;;21.70;82.50;;;;;;5013134;28;20441;-73
2023/04/30 11:56:53;;;;;;;1.65;0.32;;;21.00;82.00;;;;;;5012863;28;20434;-73
2023/04/30 11:59:23;;;;;;;0.40;0.40;;;21.00;83.50;;;;;;5013887;28;21140;-74
2023/04/30 12:01:53;;;;;;;0.45;0.40;;;20.80;83.10;;;;;;5013259;28;20439;-75
2023/04/30 12:04:20;;;;;;;0.40;0.40;;;20.90;83.20;;;;;;5013541;28;20443;-73
2023/04/30 12:06:47;;;;;;;0.30;0.20;;;21.00;84.10;;;;;;5011487;28;20591;-73
2023/04/30 12:09:58;;;;;;;0.30;0.30;;;21.10;82.30;;;;;;5022867;28;20765;-73
2023/04/30 12:12:27;;;;;;;0.40;0.40;;;21.90;83.00;;;;;;5009356;28;21558;-74
2023/04/30 12:14:54;;;;;;;0.30;0.30;;;22.30;82.50;;;;;;5010360;28;20620;-74
2023/04/30 12:17:34;;;;;;;0.50;0.40;;;21.80;83.50;;;;;;5011423;28;20430;-73
2023/04/30 12:20:05;;;;;;;0.40;0.40;;;22.30;83.80;;;;;;5006118;28;20440;-74
2023/04/30 12:22:31;;;;;;;0.30;0.30;;;22.80;83.00;;;;;;5011317;28;20450;-73
2023/04/30 12:24:59;;;;;;;0.60;0.30;;;22.90;82.80;;;;;;5008590;28;20428;-73
2023/04/30 12:27:29;;;;;;;0.30;0.30;;;23.00;81.40;;;;;;5014527;28;20797;-73
2023/04/30 12:29:56;;;;;;;0.30;0.30;;;22.90;81.50;;;;;;5009649;28;20814;-73
2023/04/30 12:32:23;;;;;;;0.30;0.30;;;22.60;80.80;;;;;;5010601;28;20490;-74
2023/04/30 12:34:50;;;;;;;0.60;0.38;;;22.30;81.80;;;;;;5009928;28;20536;-73
2023/04/30 12:37:17;;;;;;;0.30;0.30;;;22.30;80.30;;;;;;5004239;28;20533;-75
2023/04/30 12:39:43;;;;;;;0.40;0.40;;;22.60;80.80;;;;;;5010915;28;20434;-73
2023/04/30 12:42:10;;;;;;;0.40;0.40;;;22.50;79.80;;;;;;5009981;28;20473;-74
2023/04/30 12:44:44;;;;;;;0.20;0.20;;;22.80;80.20;;;;;;5012317;28;21216;-73
2023/04/30 12:47:11;;;;;;;0.38;0.38;;;23.60;80.20;;;;;;5008104;28;20949;-73
2023/04/30 12:49:38;;;;;;;0.20;0.20;;;24.30;79.90;;;;;;5009637;28;20925;-72
2023/04/30 12:52:09;;;;;;;0.40;0.20;;;24.20;78.80;;;;;;5008637;28;20931;-72
2023/04/30 12:54:36;;;;;;;0.30;0.30;;;23.50;78.30;;;;;;5011216;28;20435;-74
2023/04/30 12:57:04;;;;;;;0.40;0.40;;;22.70;78.40;;;;;;5001117;28;20439;-73
2023/04/30 12:59:33;;;;;;;0.50;0.50;;;22.00;79.20;;;;;;5008792;28;20433;-73
2023/04/30 13:02:12;;;;;;;1.60;0.30;;;21.90;79.60;;;;;;5005938;28;20441;-73